Time;durP1;ratioP1;P1;durP2;ratioP2;P2;SDS_P1;SDS_P2;PMS_P1;PMS_P2;Temp;Humidity;BMP_temperature;BMP_pressure;BME280_temperature;BME280_humidity;BME280_pressure;Samples;Min_cycle;Max_cycle;Signal;HPM_P1;HPM_P2
2022/12/22 03:26:02;;;;;;;;;0.00;0.00;;;;;13.76;65.46;100834.38;5043369;28;45420;-73
2022/12/22 03:28:28;;;;;;;;;0.00;0.00;;;;;13.79;65.23;100829.19;5057149;28;45288;-72
2022/12/22 03:30:53;;;;;;;;;0.00;0.00;;;;;13.84;65.10;100832.78;5057509;28;45465;-71
2022/12/22 03:33:19;;;;;;;;;0.00;0.00;;;;;13.66;64.94;100795.66;5056513;28;46071;-73
2022/12/22 03:35:45;;;;;;;;;0.00;0.00;;;;;13.98;64.85;100835.69;5056824;28;45780;-74
2022/12/22 03:38:10;;;;;;;;;0.67;0.67;;;;;14.00;64.64;100839.25;5056766;28;45389;-74
2022/12/22 03:40:36;;;;;;;;;2.67;1.00;;;;;14.04;64.61;100846.34;5055715;28;45237;-72
2022/12/22 03:48:29;;;;;;;;;2.00;0.00;;;;;14.11;64.23;100835.09;5055885;28;45424;-73
2022/12/22 03:50:54;;;;;;;;;0.33;0.00;;;;;14.17;64.16;100833.47;5056012;28;45530;-70
2022/12/22 03:53:20;;;;;;;;;2.00;1.00;;;;;14.20;63.94;100836.13;5056528;28;45697;-72
2022/12/22 03:55:45;;;;;;;;;0.00;0.00;;;;;14.21;64.08;100827.41;5057592;28;45387;-74
2022/12/22 03:58:11;;;;;;;;;0.00;0.00;;;;;14.24;63.60;100827.47;5055315;28;45193;-69
2022/12/22 04:00:38;;;;;;;;;0.00;0.00;;;;;14.10;63.63;100786.03;5043519;28;45548;-70
2022/12/22 04:03:03;;;;;;;;;0.00;0.00;;;;;14.28;63.32;100818.78;5052410;28;46233;-72
2022/12/22 04:05:29;;;;;;;;;0.00;0.00;;;;;14.30;63.24;100810.09;5042641;28;45528;-72
2022/12/22 04:07:54;;;;;;;;;0.33;0.33;;;;;14.30;63.16;100809.19;5047943;28;45406;-69
2022/12/22 04:13:23;;;;;;;;;0.00;0.00;;;;;14.37;63.11;100789.19;5034049;28;45445;-73
2022/12/22 04:15:49;;;;;;;;;0.00;0.00;;;;;14.48;62.68;100791.16;5033728;28;45451;-72
2022/12/22 04:18:14;;;;;;;;;2.00;1.00;;;;;14.53;62.43;100796.47;5044169;28;45356;-73
2022/12/22 04:20:40;;;;;;;;;1.00;0.00;;;;;14.52;62.55;100798.22;5051964;28;45484;-72
2022/12/22 04:23:05;;;;;;;;;0.67;0.33;;;;;14.51;62.58;100806.97;5055466;28;46117;-72
2022/12/22 04:25:31;;;;;;;;;0.00;0.00;;;;;14.50;62.57;100802.56;5056458;28;45535;-72
2022/12/22 04:27:56;;;;;;;;;1.00;0.00;;;;;14.55;62.47;100794.75;5056748;28;45480;-69
2022/12/22 04:30:22;;;;;;;;;0.00;0.00;;;;;14.37;62.41;100757.66;5056812;28;45446;-73
2022/12/22 04:32:47;;;;;;;;;0.00;0.00;;;;;14.59;61.99;100790.47;5038694;28;46128;-74
2022/12/22 04:35:13;;;;;;;;;0.00;0.00;;;;;14.61;62.03;100796.66;5049539;28;45445;-73
2022/12/22 04:37:38;;;;;;;;;0.00;0.00;;;;;14.59;62.30;100798.38;5055552;28;45353;-74
2022/12/22 04:40:04;;;;;;;;;0.00;0.00;;;;;14.57;62.15;100807.97;5055899;28;45397;-72
2022/12/22 04:42:30;;;;;;;;;0.00;0.00;;;;;14.56;61.92;100814.94;5055869;28;46170;-72
2022/12/22 04:44:55;;;;;;;;;0.00;0.00;;;;;14.55;62.17;100814.91;5043994;28;45347;-72
2022/12/22 04:47:21;;;;;;;;;0.00;0.00;;;;;14.59;61.99;100803.63;5036486;28;45303;-72
2022/12/22 04:49:46;;;;;;;;;0.00;0.00;;;;;14.27;61.50;100752.22;5052245;28;45261;-75
2022/12/22 04:52:12;;;;;;;;;1.00;0.00;;;;;14.52;61.54;100803.47;5043942;28;45483;-74
2022/12/22 04:54:37;;;;;;;;;0.33;0.00;;;;;14.58;61.85;100807.09;5055375;28;45435;-73
2022/12/22 04:57:03;;;;;;;;;0.00;0.00;;;;;14.62;61.67;100815.09;5055487;28;45336;-72
2022/12/22 04:59:28;;;;;;;;;0.00;0.00;;;;;14.64;61.62;100809.84;5056348;28;45492;-74
2022/12/22 05:01:54;;;;;;;;;1.00;0.00;;;;;14.66;61.58;100809.03;5055576;28;47191;-73
2022/12/22 05:04:19;;;;;;;;;1.00;0.00;;;;;14.67;61.26;100807.28;5055753;28;45311;-76
2022/12/22 05:06:45;;;;;;;;;0.00;0.00;;;;;14.71;61.07;100809.09;5056121;28;45524;-75
2022/12/22 05:09:11;;;;;;;;;0.00;0.00;;;;;14.72;61.09;100813.47;5056363;28;45523;-73
2022/12/22 05:11:36;;;;;;;;;0.67;0.00;;;;;14.71;61.11;100809.09;5040055;28;45468;-74
2022/12/22 05:14:02;;;;;;;;;0.00;0.00;;;;;14.78;60.99;100817.97;5050560;28;45394;-69
2022/12/22 05:16:28;;;;;;;;;0.00;0.00;;;;;14.82;60.71;100818.06;5051349;28;45342;-74
2022/12/22 05:18:53;;;;;;;;;0.00;0.00;;;;;14.59;60.59;100778.22;5044208;28;45359;-72
2022/12/22 05:21:21;;;;;;;;;0.00;0.00;;;;;14.79;60.76;100825.88;5057698;28;45549;-70
2022/12/22 05:23:48;;;;;;;;;2.33;0.67;;;;;14.75;60.81;100815.28;5051944;28;45526;-71
2022/12/22 05:26:15;;;;;;;;;0.00;0.00;;;;;14.76;60.59;100817.03;5051532;28;45531;-73
2022/12/22 05:28:42;;;;;;;;;0.00;0.00;;;;;14.74;60.65;100824.91;5043135;28;45482;-69
2022/12/22 05:31:12;;;;;;;;;0.00;0.00;;;;;14.71;60.72;100828.38;5059084;28;45431;-71
2022/12/22 05:33:38;;;;;;;;;1.00;1.00;;;;;14.72;60.63;100826.63;5059006;28;45483;-73
2022/12/22 05:36:04;;;;;;;;;0.00;0.00;;;;;14.72;60.49;100818.72;5058569;28;45594;-71
2022/12/22 05:38:29;;;;;;;;;1.00;1.00;;;;;14.76;60.23;100820.56;5058931;28;45306;-73
2022/12/22 05:40:55;;;;;;;;;0.00;0.00;;;;;14.79;60.25;100828.50;5057493;28;45542;-74
2022/12/22 05:43:20;;;;;;;;;0.00;0.00;;;;;14.77;60.32;100830.22;5059015;28;45490;-74
2022/12/22 05:45:46;;;;;;;;;2.00;1.00;;;;;14.76;60.20;100838.97;5055279;28;45342;-74
2022/12/22 05:48:12;;;;;;;;;1.00;1.00;;;;;14.75;60.25;100837.22;5058242;28;45627;-73
2022/12/22 05:50:38;;;;;;;;;0.00;0.00;;;;;14.73;60.39;100832.78;5058985;28;45576;-74
2022/12/22 05:53:05;;;;;;;;;0.00;0.00;;;;;14.68;60.43;100840.56;5049972;28;45443;-72
2022/12/22 05:55:31;;;;;;;;;2.00;0.00;;;;;14.40;60.65;100797.97;5052603;28;45616;-73
2022/12/22 05:58:00;;;;;;;;;3.00;0.00;;;;;14.67;60.54;100838.81;5058337;28;45561;-71
2022/12/22 06:00:27;;;;;;;;;1.00;1.00;;;;;14.52;60.41;100798.22;5056153;28;46042;-73
2022/12/22 06:02:53;;;;;;;;;1.00;0.00;;;;;14.70;60.20;100826.63;5038719;28;45993;-70
2022/12/22 06:05:19;;;;;;;;;0.67;0.33;;;;;14.73;60.02;100830.16;5054742;28;45599;-73
2022/12/22 06:07:44;;;;;;;;;1.00;0.00;;;;;14.74;60.15;100830.16;5045245;28;45361;-73
2022/12/22 06:10:11;;;;;;;;;1.00;0.00;;;;;14.77;59.81;100840.75;5058174;28;45461;-74
2022/12/22 06:12:38;;;;;;;;;1.33;1.33;;;;;14.62;59.67;100806.28;5058359;28;45333;-73
2022/12/22 06:15:04;;;;;;;;;1.00;0.00;;;;;14.75;60.13;100834.59;5042455;28;45461;-72
2022/12/22 06:17:30;;;;;;;;;1.67;1.00;;;;;14.80;60.05;100839.91;5058183;28;45425;-73
2022/12/22 06:19:55;;;;;;;;;0.33;0.00;;;;;14.85;59.83;100844.41;5058245;28;46082;-69
2022/12/22 06:22:21;;;;;;;;;0.67;0.00;;;;;14.93;59.29;100841.03;5043848;28;45333;-72
2022/12/22 06:24:46;;;;;;;;;0.00;0.00;;;;;14.89;59.20;100827.81;5053193;28;45519;-73
2022/12/22 06:27:12;;;;;;;;;0.00;0.00;;;;;14.94;59.41;100832.25;5044336;28;45602;-72
2022/12/22 06:29:38;;;;;;;;;0.00;0.00;;;;;14.97;59.02;100829.69;5048177;28;45343;-74
2022/12/22 06:32:03;;;;;;;;;0.67;0.00;;;;;14.90;58.82;100826.97;5052467;28;45388;-71
2022/12/22 06:34:29;;;;;;;;;0.00;0.00;;;;;15.04;58.86;100837.72;5057028;28;45422;-71
2022/12/22 06:36:54;;;;;;;;;0.00;0.00;;;;;15.05;58.69;100831.56;5058346;28;45697;-72
2022/12/22 06:39:20;;;;;;;;;1.00;0.00;;;;;15.03;58.94;100828.03;5052413;28;46153;-70
2022/12/22 06:44:30;;;;;;;;;0.67;0.33;;;;;14.99;58.74;100838.50;5057514;28;45386;-71
2022/12/22 06:46:55;;;;;;;;;1.00;0.00;;;;;14.81;58.97;100826.78;5039792;28;45506;-72
2022/12/22 06:49:21;;;;;;;;;0.00;0.00;;;;;14.99;59.07;100841.13;5051535;28;45795;-71
2022/12/22 06:51:47;;;;;;;;;0.00;0.00;;;;;15.01;58.87;100839.41;5048076;28;45498;-70
2022/12/22 06:54:13;;;;;;;;;1.00;0.00;;;;;14.98;58.60;100819.19;5051402;28;45477;-73
2022/12/22 06:56:39;;;;;;;;;1.00;0.00;;;;;14.94;58.49;100811.22;5057099;28;45354;-71
2022/12/22 06:59:04;;;;;;;;;0.00;0.00;;;;;15.11;58.41;100831.66;5052050;28;46039;-74
2022/12/22 07:01:30;;;;;;;;;0.00;0.00;;;;;15.18;58.21;100830.03;5046163;28;45390;-74
2022/12/22 07:03:55;;;;;;;;;1.00;0.00;;;;;15.04;57.99;100799.97;5057182;28;45738;-72
2022/12/22 07:06:21;;;;;;;;;1.00;0.33;;;;;15.24;57.83;100834.50;5056208;28;45645;-69
2022/12/22 07:08:47;;;;;;;;;0.67;0.67;;;;;14.99;57.60;100776.22;5054580;28;45591;-73
2022/12/22 07:11:14;;;;;;;;;0.00;0.00;;;;;15.27;57.64;100826.66;5056520;28;45621;-72
2022/12/22 07:13:40;;;;;;;;;0.33;0.00;;;;;15.26;57.78;100824.88;5054386;28;45674;-72
2022/12/22 07:16:07;;;;;;;;;0.33;0.00;;;;;15.26;57.97;100838.03;5062073;28;45592;-72
2022/12/22 07:18:41;;;;;;;;;1.00;0.33;;;;;15.03;58.01;100790.31;5056946;28;46166;-73
2022/12/22 07:21:09;;;;;;;;;1.33;0.00;;;;;15.25;57.80;100817.84;5051297;28;45516;-71
2022/12/22 07:23:35;;;;;;;;;0.67;0.00;;;;;15.08;57.68;100789.53;5055540;28;45609;-72
2022/12/22 07:26:01;;;;;;;;;0.00;0.00;;;;;15.32;57.84;100820.59;5056185;28;45456;-69
2022/12/22 07:28:26;;;;;;;;;0.33;0.33;;;;;15.34;57.42;100827.63;5052778;28;45598;-69
2022/12/22 07:30:53;;;;;;;;;0.00;0.00;;;;;15.35;57.69;100818.88;5056667;28;45555;-72
2022/12/22 07:33:19;;;;;;;;;1.33;0.67;;;;;15.30;57.49;100811.78;5055912;28;45528;-67
2022/12/22 07:35:44;;;;;;;;;0.00;0.00;;;;;15.32;57.79;100832.88;5056195;28;45578;-67
2022/12/22 07:38:10;;;;;;;;;1.00;1.00;;;;;15.36;57.52;100845.22;5055364;28;45599;-68
2022/12/22 07:40:35;;;;;;;;;0.33;0.33;;;;;15.37;57.56;100840.84;5055918;28;45320;-68
2022/12/22 07:43:01;;;;;;;;;1.00;0.67;;;;;15.39;57.66;100844.38;5055512;28;45459;-69
2022/12/22 07:45:27;;;;;;;;;1.00;1.00;;;;;15.29;57.34;100819.66;5055417;28;45362;-70
2022/12/22 07:48:00;;;;;;;;;1.33;0.67;;;;;15.45;57.56;100840.09;5055791;28;45389;-67
2022/12/22 07:50:27;;;;;;;;;0.00;0.00;;;;;15.50;57.08;100827.88;5051595;28;45250;-70
2022/12/22 07:52:57;;;;;;;;;0.67;0.67;;;;;15.62;56.84;100842.09;5053456;28;45583;-71
2022/12/22 07:55:24;;;;;;;;;0.00;0.00;;;;;15.65;56.84;100836.84;5053436;28;45382;-68
2022/12/22 07:57:51;;;;;;;;;0.00;0.00;;;;;15.63;56.48;100817.50;5054924;28;46039;-68
2022/12/22 08:00:17;;;;;;;;;1.00;1.00;;;;;15.74;56.61;100841.38;5055833;28;45251;-71
2022/12/22 08:02:51;;;;;;;;;1.00;1.00;;;;;15.77;56.69;100838.81;5056012;28;45512;-71
2022/12/22 08:05:17;;;;;;;;;1.33;1.00;;;;;15.78;56.42;100840.59;5052885;28;45346;-72
2022/12/22 08:07:43;;;;;;;;;1.00;1.00;;;;;15.85;56.15;100850.31;5055164;28;46033;-70
2022/12/22 08:10:10;;;;;;;;;1.00;1.00;;;;;15.90;55.98;100853.91;5063023;28;46005;-69
2022/12/22 08:12:39;;;;;;;;;0.00;0.00;;;;;15.85;56.07;100842.41;5055626;28;45547;-70
2022/12/22 08:15:06;;;;;;;;;5.67;4.67;;;;;15.97;55.79;100841.69;5052072;28;45464;-72
2022/12/22 08:17:32;;;;;;;;;1.00;0.33;;;;;15.94;56.20;100847.81;5052287;28;46372;-72
2022/12/22 08:19:58;;;;;;;;;1.00;1.00;;;;;15.91;55.96;100848.66;5054583;28;45571;-71
2022/12/22 08:22:23;;;;;;;;;0.00;0.00;;;;;15.91;56.14;100855.66;5052602;28;45610;-72
2022/12/22 08:24:50;;;;;;;;;1.00;1.00;;;;;15.88;56.27;100848.63;5054529;28;45311;-74
2022/12/22 08:27:23;;;;;;;;;0.33;0.33;;;;;15.86;56.26;100844.22;5053449;28;46184;-76
2022/12/22 08:29:54;;;;;;;;;0.00;0.00;;;;;15.87;56.16;100841.56;5051282;28;45424;-78
2022/12/22 08:32:20;;;;;;;;;2.00;1.00;;;;;15.79;56.60;100837.06;5056696;28;45357;-78
2022/12/22 08:34:49;;;;;;;;;3.00;2.00;;;;;15.75;56.03;100808.94;5057258;28;45346;-78
2022/12/22 08:37:17;;;;;;;;;1.00;1.00;;;;;15.92;55.95;100833.75;5056649;28;46047;-76
2022/12/22 08:39:47;;;;;;;;;0.67;0.00;;;;;15.96;56.16;100830.28;5055748;28;45508;-78
2022/12/22 08:42:16;;;;;;;;;0.00;0.00;;;;;15.98;56.33;100847.00;5053119;28;45349;-78
2022/12/22 08:44:44;;;;;;;;;0.33;0.00;;;;;16.04;56.14;100833.00;5055972;28;45415;-77
2022/12/22 08:47:10;;;;;;;;;1.00;1.00;;;;;16.07;55.84;100828.63;5056153;28;46416;-77
2022/12/22 08:49:36;;;;;;;;;1.00;1.00;;;;;16.15;55.43;100825.22;5058833;28;45510;-79
2022/12/22 08:52:01;;;;;;;;;1.00;0.33;;;;;16.02;55.51;100804.00;5060241;28;45394;-78
2022/12/22 08:54:27;;;;;;;;;1.00;1.00;;;;;16.08;55.32;100806.72;5069109;28;45720;-77
2022/12/22 08:56:53;;;;;;;;;0.00;0.00;;;;;16.35;55.28;100838.63;5059313;28;46017;-77
2022/12/22 08:59:18;;;;;;;;;1.00;1.00;;;;;16.37;54.83;100824.59;5059269;28;45391;-77
2022/12/22 09:01:46;;;;;;;;;1.00;0.00;;;;;16.47;54.98;100838.75;5059491;28;45572;-77
2022/12/22 09:04:13;;;;;;;;;1.00;1.00;;;;;16.48;54.73;100832.63;5060029;28;45963;-78
2022/12/22 09:06:39;;;;;;;;;1.67;1.00;;;;;16.49;54.66;100834.38;5059372;28;46206;-75
2022/12/22 09:09:07;;;;;;;;;0.00;0.00;;;;;16.54;54.62;100837.97;5059171;28;45716;-78
2022/12/22 09:11:33;;;;;;;;;0.00;0.00;;;;;16.59;54.41;100844.19;5057543;28;45616;-77
2022/12/22 09:14:01;;;;;;;;;1.00;0.00;;;;;16.72;54.26;100826.72;5055487;28;45520;-77
2022/12/22 09:16:31;;;;;;;;;1.67;0.67;;;;;16.62;54.18;100801.13;5041263;28;46319;-75
2022/12/22 09:18:57;;;;;;;;;1.00;1.00;;;;;16.82;54.09;100825.94;5044491;28;45468;-73
2022/12/22 09:21:24;;;;;;;;;1.00;0.67;;;;;16.92;53.59;100832.19;5058493;28;45542;-77
2022/12/22 09:23:50;;;;;;;;;1.00;0.33;;;;;17.29;52.71;100848.34;5055170;28;45605;-77
2022/12/22 09:26:18;;;;;;;;;1.00;1.00;;;;;18.06;51.78;100852.34;5058182;28;46270;-77
2022/12/22 09:28:44;;;;;;;;;0.33;0.33;;;;;18.25;51.14;100855.03;5058265;28;45788;-70
2022/12/22 09:31:12;;;;;;;;;0.67;0.67;;;;;18.57;50.48;100852.47;5058136;28;45384;-79
2022/12/22 09:33:37;;;;;;;;;1.00;0.00;;;;;18.76;49.80;100841.91;5056810;28;45571;-74
2022/12/22 09:36:12;;;;;;;;;0.00;0.00;;;;;18.95;49.28;100838.44;5057772;28;45944;-78
2022/12/22 09:38:40;;;;;;;;;0.00;0.00;;;;;19.25;49.28;100847.25;5057500;28;45491;-80
2022/12/22 09:41:08;;;;;;;;;0.00;0.00;;;;;19.52;47.70;100846.34;5057773;28;45547;-80
2022/12/22 09:43:34;;;;;;;;;1.00;1.00;;;;;19.90;47.72;100842.72;5055459;28;45415;-75
2022/12/22 09:46:00;;;;;;;;;1.00;0.00;;;;;20.21;46.47;100839.91;5057356;28;46104;-80
2022/12/22 09:48:36;;;;;;;;;1.00;1.00;;;;;20.23;46.32;100801.00;5055377;28;45879;-80
2022/12/22 09:51:03;;;;;;;;;0.67;0.67;;;;;20.63;45.78;100824.66;5054756;28;45677;-78
2022/12/22 09:53:30;;;;;;;;;1.00;1.00;;;;;20.88;44.36;100821.84;5056045;28;45600;-80
2022/12/22 09:55:55;;;;;;;;;0.33;0.00;;;;;21.16;44.33;100818.03;5056974;28;45462;-77
2022/12/22 09:58:28;;;;;;;;;0.00;0.00;;;;;21.46;43.70;100816.00;5057515;28;45424;-79
2022/12/22 10:01:05;;;;;;;;;4.00;0.67;;;;;21.80;42.90;100808.53;5056169;28;45319;-80
2022/12/22 10:03:47;;;;;;;;;2.00;2.00;;;;;22.09;41.80;100787.78;5057895;28;45361;-79
2022/12/22 10:06:42;;;;;;;;;1.00;0.00;;;;;22.52;41.63;100789.84;5052084;28;46013;-71
2022/12/22 10:09:29;;;;;;;;;0.00;0.00;;;;;22.97;40.08;100800.66;5047630;28;45535;-78
2022/12/22 10:12:00;;;;;;;;;0.00;0.00;;;;;23.38;39.51;100791.94;5054376;28;45697;-74
2022/12/22 10:14:37;;;;;;;;;1.00;0.00;;;;;23.60;39.23;100770.19;5056287;28;46273;-78
2022/12/22 10:17:23;;;;;;;;;1.00;1.00;;;;;23.93;38.50;100797.09;5050404;28;46301;-79
2022/12/22 10:19:52;;;;;;;;;0.00;0.00;;;;;24.09;38.17;100792.31;5054890;28;45443;-78
2022/12/22 10:22:30;;;;;;;;;2.00;2.00;;;;;24.18;37.95;100790.31;5056027;28;45502;-78
2022/12/22 10:24:59;;;;;;;;;0.33;0.00;;;;;24.29;38.09;100781.19;5055045;28;45879;-79
2022/12/22 10:27:30;;;;;;;;;0.00;0.00;;;;;23.85;37.76;100754.56;5055612;28;45452;-78
2022/12/22 10:30:22;;;;;;;;;0.67;0.67;;;;;23.66;38.54;100801.22;5055973;28;45432;-78
2022/12/22 10:33:13;;;;;;;;;0.00;0.00;;;;;23.23;38.98;100786.91;5049285;28;46441;-78
2022/12/22 10:35:52;;;;;;;;;2.00;1.00;;;;;22.93;39.09;100798.94;5048698;28;45395;-78
2022/12/22 10:38:31;;;;;;;;;1.33;1.00;;;;;22.87;39.47;100807.91;5056031;28;46123;-77
2022/12/22 10:41:18;;;;;;;;;1.67;1.67;;;;;23.20;40.42;100803.84;5055536;28;45535;-74
2022/12/22 10:43:54;;;;;;;;;0.67;0.00;;;;;23.38;39.67;100794.63;5052366;28;45663;-72
2022/12/22 10:46:29;;;;;;;;;1.00;1.00;;;;;23.41;39.33;100796.34;5053147;28;45434;-77
2022/12/22 10:49:18;;;;;;;;;2.33;2.00;;;;;23.28;39.21;100794.78;5056327;28;46455;-79
2022/12/22 10:51:46;;;;;;;;;2.00;1.00;;;;;23.22;39.84;100799.34;5054386;28;45426;-79
2022/12/22 10:54:29;;;;;;;;;0.00;0.00;;;;;23.16;40.26;100793.25;5056185;28;45304;-77
2022/12/22 10:57:22;;;;;;;;;1.00;0.00;;;;;23.05;40.18;100793.44;5053019;28;45522;-79
2022/12/22 10:59:53;;;;;;;;;2.67;2.00;;;;;22.96;40.22;100788.22;5055439;28;45604;-75
2022/12/22 11:02:25;;;;;;;;;1.33;1.00;;;;;22.82;41.03;100792.03;5056381;28;46055;-84
2022/12/22 11:04:52;;;;;;;;;0.00;0.00;;;;;22.63;40.74;100764.81;5054221;28;45471;-78
2022/12/22 11:07:19;;;;;;;;;0.00;0.00;;;;;22.71;41.08;100764.69;5057116;28;45492;-76
2022/12/22 11:09:44;;;;;;;;;2.00;1.00;;;;;22.82;40.67;100775.19;5056569;28;45982;-78
2022/12/22 11:12:22;;;;;;;;;1.00;1.00;;;;;22.86;40.34;100783.97;5055641;28;45460;-76
2022/12/22 11:15:15;;;;;;;;;1.00;0.67;;;;;22.67;41.13;100770.09;5057221;28;45617;-78
2022/12/22 11:18:02;;;;;;;;;1.00;1.00;;;;;22.53;41.42;100765.00;5054385;28;45372;-78
2022/12/22 11:20:33;;;;;;;;;1.00;1.00;;;;;22.40;41.33;100751.88;5046049;28;45564;-78
2022/12/22 11:23:07;;;;;;;;;0.00;0.00;;;;;22.28;41.50;100749.38;5043748;28;45264;-74
2022/12/22 11:26:06;;;;;;;;;1.00;1.00;;;;;22.24;40.95;100747.66;5052142;28;45875;-78
2022/12/22 11:28:56;;;;;;;;;1.00;0.33;;;;;22.10;41.26;100742.50;5047409;28;45294;-78
2022/12/22 11:31:43;;;;;;;;;1.00;1.00;;;;;22.00;41.56;100747.13;5054485;28;47063;-78
2022/12/22 11:34:30;;;;;;;;;0.67;0.00;;;;;21.82;41.22;100753.53;5056323;28;45476;-79
2022/12/22 11:37:25;;;;;;;;;2.00;2.00;;;;;21.60;42.05;100747.63;5056389;28;45393;-76
2022/12/22 11:40:02;;;;;;;;;0.00;0.00;;;;;21.36;42.97;100746.09;5043475;28;45501;-80
2022/12/22 11:42:43;;;;;;;;;21.67;19.33;;;;;21.13;43.62;100762.31;5050702;28;45576;-80
2022/12/22 11:45:36;;;;;;;;;15.00;13.00;;;;;21.02;43.87;100758.84;5053574;28;45699;-80
2022/12/22 11:48:29;;;;;;;;;7.33;6.33;;;;;20.95;44.13;100765.09;5053790;28;45503;-80
2022/12/22 11:50:56;;;;;;;;;7.00;6.00;;;;;20.71;44.24;100767.13;5054324;28;45540;-81
2022/12/22 11:54:01;;;;;;;;;8.00;7.33;;;;;20.75;45.09;100774.16;5056011;28;45950;-77
2022/12/22 11:56:39;;;;;;;;;5.00;5.00;;;;;20.82;45.02;100773.19;5055794;28;45547;-77
2022/12/22 11:59:08;;;;;;;;;16.67;14.33;;;;;20.74;45.22;100769.72;5055483;28;45444;-79
2022/12/22 12:02:11;;;;;;;;;11.00;9.33;;;;;20.74;45.09;100768.84;5053933;28;45421;-81
2022/12/22 12:05:07;;;;;;;;;6.00;5.33;;;;;20.66;45.44;100760.94;5051425;28;45489;-79
2022/12/22 12:07:40;;;;;;;;;5.00;5.00;;;;;20.53;45.29;100753.94;5054235;28;45511;-80
2022/12/22 12:10:27;;;;;;;;;2.00;1.00;;;;;20.42;45.12;100751.38;5041848;28;45518;-77
2022/12/22 12:13:09;;;;;;;;;4.00;2.00;;;;;20.34;45.48;100748.78;5062922;28;45461;-77
2022/12/22 12:16:02;;;;;;;;;2.00;2.00;;;;;20.39;44.90;100757.59;5056562;28;46322;-78
2022/12/22 12:18:41;;;;;;;;;3.00;2.00;;;;;20.35;45.33;100749.66;5056538;28;45196;-77
2022/12/22 12:21:12;;;;;;;;;2.67;2.33;;;;;20.40;45.60;100748.72;5057260;28;46083;-76
2022/12/22 12:24:11;;;;;;;;;2.00;2.00;;;;;20.55;45.41;100754.81;5056781;28;45354;-77
2022/12/22 12:27:01;;;;;;;;;3.00;3.00;;;;;20.64;44.98;100757.44;5056847;28;46178;-77
2022/12/22 12:29:34;;;;;;;;;4.33;4.33;;;;;20.70;44.83;100736.13;5056877;28;45540;-77
2022/12/22 12:32:21;;;;;;;;;5.00;5.00;;;;;20.75;44.74;100739.66;5057056;28;45328;-78
2022/12/22 12:34:53;;;;;;;;;2.00;1.00;;;;;20.80;44.37;100731.63;5057100;28;45251;-77
2022/12/22 12:37:28;;;;;;;;;1.67;1.00;;;;;20.68;44.65;100732.63;5056940;28;45545;-72
2022/12/22 12:40:45;;;;;;;;;3.00;3.00;;;;;20.63;45.72;100750.34;5056240;28;45524;-74
2022/12/22 12:43:12;;;;;;;;;3.00;3.00;;;;;20.54;45.79;100732.69;5038914;28;45457;-77
2022/12/22 12:45:41;;;;;;;;;4.00;3.00;;;;;20.58;46.30;100742.41;5057216;28;45485;-77
2022/12/22 12:48:36;;;;;;;;;5.00;5.00;;;;;20.53;46.22;100741.56;5056527;28;46093;-74
2022/12/22 12:51:01;;;;;;;;;3.00;3.00;;;;;20.48;46.75;100742.50;5056654;28;45373;-77
2022/12/22 12:53:28;;;;;;;;;4.33;3.67;;;;;20.46;47.10;100740.72;5056502;28;45519;-77
2022/12/22 12:55:58;;;;;;;;;2.00;2.00;;;;;20.53;47.21;100748.63;5056964;28;45343;-75
2022/12/22 12:58:36;;;;;;;;;1.33;1.33;;;;;20.51;47.15;100745.97;5056407;28;45472;-75
2022/12/22 13:01:10;;;;;;;;;5.33;4.00;;;;;20.46;47.11;100746.03;5056112;28;45243;-77
2022/12/22 13:03:41;;;;;;;;;4.00;2.00;;;;;20.45;46.96;100738.97;5056377;28;45254;-74
2022/12/22 13:06:10;;;;;;;;;5.33;5.00;;;;;20.39;47.07;100736.38;5055273;28;45566;-69
2022/12/22 13:09:00;;;;;;;;;4.67;4.00;;;;;20.33;47.56;100744.34;5056338;28;45475;-76
2022/12/22 13:11:36;;;;;;;;;2.00;2.00;;;;;20.26;47.25;100734.69;5056233;28;45629;-77
2022/12/22 13:14:03;;;;;;;;;1.33;1.33;;;;;20.18;47.55;100728.56;5056452;28;45314;-75
2022/12/22 13:16:31;;;;;;;;;2.00;2.00;;;;;20.08;48.08;100732.16;5056569;28;45240;-76
2022/12/22 13:18:58;;;;;;;;;3.00;1.00;;;;;19.77;49.74;100716.41;5056179;28;46213;-75
2022/12/22 13:21:37;;;;;;;;;2.33;2.33;;;;;19.80;50.21;100732.31;5056324;28;45534;-75
2022/12/22 13:24:20;;;;;;;;;1.33;1.33;;;;;19.70;51.81;100726.13;5056412;28;45494;-76
2022/12/22 13:26:50;;;;;;;;;3.00;1.00;;;;;19.68;51.78;100715.53;5056281;28;45326;-77
2022/12/22 13:29:21;;;;;;;;;4.00;3.00;;;;;19.70;51.22;100709.38;5056292;28;46161;-77
2022/12/22 13:31:50;;;;;;;;;1.00;1.00;;;;;19.71;51.91;100713.75;5056213;28;45535;-76
2022/12/22 13:34:31;;;;;;;;;2.00;1.00;;;;;19.75;51.42;100719.06;5056768;28;45302;-76
2022/12/22 13:37:12;;;;;;;;;2.00;1.00;;;;;19.79;51.30;100707.53;5059835;28;45327;-74
2022/12/22 13:39:38;;;;;;;;;4.00;4.00;;;;;19.63;51.47;100669.59;5059394;28;46174;-77
2022/12/22 13:42:05;;;;;;;;;1.67;1.67;;;;;19.79;51.62;100690.78;5059451;28;45538;-76
2022/12/22 13:44:33;;;;;;;;;1.00;1.00;;;;;19.78;51.29;100692.56;5059643;28;45358;-76
2022/12/22 13:47:13;;;;;;;;;2.00;1.00;;;;;19.60;51.35;100663.47;5059692;28;45361;-73
2022/12/22 13:49:41;;;;;;;;;1.33;1.33;;;;;19.75;51.46;100689.03;5059171;28;45521;-76
2022/12/22 13:52:14;;;;;;;;;4.67;3.00;;;;;19.73;51.00;100683.72;5059230;28;45376;-75
2022/12/22 13:54:43;;;;;;;;;2.00;1.00;;;;;19.64;50.99;100683.75;5059364;28;45364;-71
2022/12/22 13:57:19;;;;;;;;;2.67;1.67;;;;;19.65;51.59;100704.94;5059584;28;45434;-70
2022/12/22 13:59:48;;;;;;;;;1.00;1.00;;;;;19.60;52.10;100713.81;5059208;28;45479;-77
2022/12/22 14:02:17;;;;;;;;;6.33;5.00;;;;;19.61;52.71;100719.09;5058857;28;45487;-76
2022/12/22 14:05:01;;;;;;;;;8.00;7.00;;;;;19.64;52.86;100723.50;5059428;28;45495;-73
2022/12/22 14:07:26;;;;;;;;;5.00;4.00;;;;;19.67;52.06;100729.66;5059602;28;45300;-71
2022/12/22 14:09:55;;;;;;;;;1.33;1.00;;;;;19.73;51.66;100726.13;5058982;28;45956;-73
2022/12/22 14:12:25;;;;;;;;;0.33;0.33;;;;;19.72;51.25;100715.56;5059076;28;45282;-70
2022/12/22 14:14:53;;;;;;;;;1.00;1.00;;;;;19.68;51.36;100719.97;5058945;28;45524;-76
2022/12/22 14:17:24;;;;;;;;;1.00;1.00;;;;;19.61;51.06;100718.22;5059117;28;45496;-75
2022/12/22 14:19:54;;;;;;;;;2.00;1.00;;;;;19.59;51.15;100731.47;5058621;28;46102;-76
2022/12/22 14:22:44;;;;;;;;;1.33;1.00;;;;;19.60;51.29;100720.00;5058745;28;45657;-75
2022/12/22 14:25:20;;;;;;;;;1.00;1.00;;;;;19.63;51.29;100721.75;5058881;28;45349;-68
2022/12/22 14:27:56;;;;;;;;;1.67;1.67;;;;;19.47;50.75;100691.78;5059097;28;45314;-69
2022/12/22 14:30:33;;;;;;;;;1.00;1.00;;;;;19.61;50.50;100716.44;5058683;28;45318;-68
2022/12/22 14:33:27;;;;;;;;;1.00;1.00;;;;;19.58;50.75;100711.16;5059142;28;45450;-75
2022/12/22 14:36:16;;;;;;;;;0.00;0.00;;;;;19.54;50.78;100701.47;5058790;28;45507;-72
2022/12/22 14:38:48;;;;;;;;;1.67;0.67;;;;;19.53;51.04;100710.28;5058404;28;45662;-67
2022/12/22 14:41:41;;;;;;;;;1.00;1.00;;;;;19.45;51.16;100718.28;5058209;28;46065;-70
2022/12/22 14:44:36;;;;;;;;;1.00;1.00;;;;;19.31;51.87;100724.50;5058300;28;45282;-76
2022/12/22 14:47:11;;;;;;;;;1.00;1.00;;;;;19.25;52.54;100739.53;5056057;28;45401;-76
2022/12/22 14:49:42;;;;;;;;;1.00;1.00;;;;;19.24;52.98;100731.63;5058587;28;45448;-70
2022/12/22 14:52:24;;;;;;;;;1.00;1.00;;;;;19.04;52.76;100708.69;5058317;28;46088;-73
2022/12/22 14:54:52;;;;;;;;;1.33;1.00;;;;;19.13;53.02;100714.84;5058239;28;45436;-72
2022/12/22 14:57:37;;;;;;;;;1.00;1.00;;;;;19.19;53.11;100717.47;5058532;28;45574;-76
2022/12/22 15:00:20;;;;;;;;;1.00;1.00;;;;;19.20;52.73;100716.59;5058525;28;45388;-75
2022/12/22 15:02:58;;;;;;;;;1.33;1.00;;;;;19.20;52.81;100708.63;5057897;28;45752;-71
2022/12/22 15:05:35;;;;;;;;;3.00;3.00;;;;;19.20;52.46;100713.94;5058108;28;45413;-72
2022/12/22 15:08:01;;;;;;;;;0.33;0.33;;;;;18.90;52.55;100678.75;5058513;28;45491;-74
2022/12/22 15:10:42;;;;;;;;;2.00;1.00;;;;;19.12;52.24;100707.78;5058765;28;45243;-75
2022/12/22 15:13:21;;;;;;;;;1.00;1.00;;;;;19.07;52.69;100713.09;5057819;28;46224;-73
2022/12/22 15:15:49;;;;;;;;;2.00;2.00;;;;;19.05;52.77;100721.03;5058068;28;45248;-75
2022/12/22 15:18:15;;;;;;;;;1.33;1.33;;;;;19.02;52.90;100725.44;5058118;28;45425;-77
2022/12/22 15:20:40;;;;;;;;;1.00;0.67;;;;;19.02;52.54;100722.81;5058140;28;45238;-75